sensor_id;sensor_type;location;lat;lon;timestamp;temperature;humidity
418;DHT22;49;48.530;9.200;2023-09-07T00:01:50;23.20;26.30
418;DHT22;49;48.530;9.200;2023-09-07T00:04:18;23.20;26.90
418;DHT22;49;48.530;9.200;2023-09-07T00:06:45;22.90;26.10
418;DHT22;49;48.530;9.200;2023-09-07T00:09:12;23.10;27.40
418;DHT22;49;48.530;9.200;2023-09-07T00:11:41;23.10;26.20
418;DHT22;49;48.530;9.200;2023-09-07T00:14:08;23.10;28.00
418;DHT22;49;48.530;9.200;2023-09-07T00:16:36;23.10;25.80
418;DHT22;49;48.530;9.200;2023-09-07T00:19:03;23.10;25.20
418;DHT22;49;48.530;9.200;2023-09-07T00:21:30;22.80;27.10
418;DHT22;49;48.530;9.200;2023-09-07T00:23:57;23.00;28.90
418;DHT22;49;48.530;9.200;2023-09-07T00:26:24;23.10;26.40
418;DHT22;49;48.530;9.200;2023-09-07T00:28:51;23.00;27.70
418;DHT22;49;48.530;9.200;2023-09-07T00:31:18;23.00;27.20
418;DHT22;49;48.530;9.200;2023-09-07T00:33:46;22.70;27.50
418;DHT22;49;48.530;9.200;2023-09-07T00:36:12;22.00;31.60
418;DHT22;49;48.530;9.200;2023-09-07T00:38:39;21.50;33.10
418;DHT22;49;48.530;9.200;2023-09-07T00:41:07;21.00;40.30
418;DHT22;49;48.530;9.200;2023-09-07T00:43:33;20.80;45.10
418;DHT22;49;48.530;9.200;2023-09-07T00:46:00;21.10;47.20
418;DHT22;49;48.530;9.200;2023-09-07T00:48:27;21.50;44.10
418;DHT22;49;48.530;9.200;2023-09-07T00:50:56;21.80;38.90
418;DHT22;49;48.530;9.200;2023-09-07T00:53:22;22.10;37.40
418;DHT22;49;48.530;9.200;2023-09-07T00:55:50;22.20;32.70
418;DHT22;49;48.530;9.200;2023-09-07T00:58:17;22.10;33.90
418;DHT22;49;48.530;9.200;2023-09-07T01:00:44;22.10;32.60
418;DHT22;49;48.530;9.200;2023-09-07T01:03:11;22.40;32.00
418;DHT22;49;48.530;9.200;2023-09-07T01:05:43;22.50;32.00
418;DHT22;49;48.530;9.200;2023-09-07T01:08:18;22.70;32.20
418;DHT22;49;48.530;9.200;2023-09-07T01:10:45;22.50;29.30
418;DHT22;49;48.530;9.200;2023-09-07T01:13:12;22.70;32.20
418;DHT22;49;48.530;9.200;2023-09-07T01:15:39;22.50;30.80
418;DHT22;49;48.530;9.200;2023-09-07T01:18:06;22.50;30.00
418;DHT22;49;48.530;9.200;2023-09-07T01:20:35;22.70;30.30
418;DHT22;49;48.530;9.200;2023-09-07T01:23:04;23.00;31.80
418;DHT22;49;48.530;9.200;2023-09-07T01:25:31;23.00;29.60
418;DHT22;49;48.530;9.200;2023-09-07T01:27:58;22.90;30.50
418;DHT22;49;48.530;9.200;2023-09-07T01:30:27;22.90;29.60
418;DHT22;49;48.530;9.200;2023-09-07T01:32:54;22.80;29.80
418;DHT22;49;48.530;9.200;2023-09-07T01:35:21;22.80;29.50
418;DHT22;49;48.530;9.200;2023-09-07T01:37:48;22.60;30.00
418;DHT22;49;48.530;9.200;2023-09-07T01:40:17;22.80;30.30
418;DHT22;49;48.530;9.200;2023-09-07T01:42:43;22.70;30.00
418;DHT22;49;48.530;9.200;2023-09-07T01:45:10;22.70;27.90
418;DHT22;49;48.530;9.200;2023-09-07T01:47:37;22.50;30.60
418;DHT22;49;48.530;9.200;2023-09-07T01:50:05;22.70;29.30
418;DHT22;49;48.530;9.200;2023-09-07T01:52:32;22.70;28.40
418;DHT22;49;48.530;9.200;2023-09-07T01:54:59;22.80;27.90
418;DHT22;49;48.530;9.200;2023-09-07T01:57:28;22.70;29.20
418;DHT22;49;48.530;9.200;2023-09-07T01:59:55;22.50;27.50
418;DHT22;49;48.530;9.200;2023-09-07T02:02:22;22.30;29.50
418;DHT22;49;48.530;9.200;2023-09-07T02:04:49;22.30;31.90
418;DHT22;49;48.530;9.200;2023-09-07T02:07:15;22.60;31.50
418;DHT22;49;48.530;9.200;2023-09-07T02:09:42;22.70;30.80
418;DHT22;49;48.530;9.200;2023-09-07T02:12:09;22.60;27.90
418;DHT22;49;48.530;9.200;2023-09-07T02:14:38;22.10;26.80
418;DHT22;49;48.530;9.200;2023-09-07T02:17:05;21.90;28.60
418;DHT22;49;48.530;9.200;2023-09-07T02:19:32;22.40;30.50
418;DHT22;49;48.530;9.200;2023-09-07T02:21:59;22.60;32.10
418;DHT22;49;48.530;9.200;2023-09-07T02:24:26;22.90;31.40
418;DHT22;49;48.530;9.200;2023-09-07T02:26:53;23.00;29.40
418;DHT22;49;48.530;9.200;2023-09-07T02:29:19;22.50;27.40
418;DHT22;49;48.530;9.200;2023-09-07T02:31:48;22.60;29.50
418;DHT22;49;48.530;9.200;2023-09-07T02:34:14;22.60;30.40
418;DHT22;49;48.530;9.200;2023-09-07T02:36:41;22.60;28.30
418;DHT22;49;48.530;9.200;2023-09-07T02:39:08;22.30;25.60
418;DHT22;49;48.530;9.200;2023-09-07T02:41:37;22.40;28.10
418;DHT22;49;48.530;9.200;2023-09-07T02:44:04;22.10;26.40
418;DHT22;49;48.530;9.200;2023-09-07T02:46:31;22.00;28.60
418;DHT22;49;48.530;9.200;2023-09-07T02:48:59;22.10;28.60
418;DHT22;49;48.530;9.200;2023-09-07T02:51:26;22.10;28.10
418;DHT22;49;48.530;9.200;2023-09-07T02:53:53;22.10;28.30
418;DHT22;49;48.530;9.200;2023-09-07T02:56:20;22.20;30.20
418;DHT22;49;48.530;9.200;2023-09-07T02:58:47;22.40;31.50
418;DHT22;49;48.530;9.200;2023-09-07T03:01:14;22.50;29.30
418;DHT22;49;48.530;9.200;2023-09-07T03:03:44;22.10;27.90
418;DHT22;49;48.530;9.200;2023-09-07T03:06:14;22.40;31.20
418;DHT22;49;48.530;9.200;2023-09-07T03:08:42;22.20;26.20
418;DHT22;49;48.530;9.200;2023-09-07T03:11:09;22.00;25.80
418;DHT22;49;48.530;9.200;2023-09-07T03:13:36;21.90;26.90
418;DHT22;49;48.530;9.200;2023-09-07T03:16:04;21.70;26.50
418;DHT22;49;48.530;9.200;2023-09-07T03:18:31;21.50;27.00
418;DHT22;49;48.530;9.200;2023-09-07T03:20:59;21.60;27.40
418;DHT22;49;48.530;9.200;2023-09-07T03:23:28;21.50;27.30
418;DHT22;49;48.530;9.200;2023-09-07T03:25:56;21.40;27.30
418;DHT22;49;48.530;9.200;2023-09-07T03:28:23;21.40;28.30
418;DHT22;49;48.530;9.200;2023-09-07T03:30:50;21.40;30.70
418;DHT22;49;48.530;9.200;2023-09-07T03:33:17;21.40;28.80
418;DHT22;49;48.530;9.200;2023-09-07T03:35:44;21.40;29.00
418;DHT22;49;48.530;9.200;2023-09-07T03:38:11;21.20;29.00
418;DHT22;49;48.530;9.200;2023-09-07T03:40:40;21.30;29.60
418;DHT22;49;48.530;9.200;2023-09-07T03:43:06;21.30;31.60
418;DHT22;49;48.530;9.200;2023-09-07T03:45:33;21.40;29.90
418;DHT22;49;48.530;9.200;2023-09-07T03:48:00;21.40;30.00
418;DHT22;49;48.530;9.200;2023-09-07T03:50:28;21.60;33.00
418;DHT22;49;48.530;9.200;2023-09-07T03:52:54;21.90;29.00
418;DHT22;49;48.530;9.200;2023-09-07T03:55:21;21.80;27.80
418;DHT22;49;48.530;9.200;2023-09-07T03:57:50;21.50;31.10
418;DHT22;49;48.530;9.200;2023-09-07T04:00:17;21.40;27.10
418;DHT22;49;48.530;9.200;2023-09-07T04:02:45;21.30;28.50
418;DHT22;49;48.530;9.200;2023-09-07T04:05:12;21.30;29.70
418;DHT22;49;48.530;9.200;2023-09-07T04:07:39;21.40;30.00
418;DHT22;49;48.530;9.200;2023-09-07T04:10:06;21.50;32.00
418;DHT22;49;48.530;9.200;2023-09-07T04:12:33;21.60;31.20
418;DHT22;49;48.530;9.200;2023-09-07T04:15:02;21.90;33.40
418;DHT22;49;48.530;9.200;2023-09-07T04:17:29;22.20;31.60
418;DHT22;49;48.530;9.200;2023-09-07T04:19:58;22.00;30.70
418;DHT22;49;48.530;9.200;2023-09-07T04:22:24;22.20;31.80
418;DHT22;49;48.530;9.200;2023-09-07T04:24:51;22.30;31.20
418;DHT22;49;48.530;9.200;2023-09-07T04:27:18;22.60;30.40
418;DHT22;49;48.530;9.200;2023-09-07T04:29:46;22.50;28.80
418;DHT22;49;48.530;9.200;2023-09-07T04:32:16;22.10;28.60
418;DHT22;49;48.530;9.200;2023-09-07T04:34:43;22.00;28.60
418;DHT22;49;48.530;9.200;2023-09-07T04:37:11;21.70;29.60
418;DHT22;49;48.530;9.200;2023-09-07T04:39:38;21.70;28.80
418;DHT22;49;48.530;9.200;2023-09-07T04:42:06;21.40;26.60
418;DHT22;49;48.530;9.200;2023-09-07T04:44:34;21.30;29.90
418;DHT22;49;48.530;9.200;2023-09-07T04:47:01;21.30;29.40
418;DHT22;49;48.530;9.200;2023-09-07T04:49:29;21.00;30.70
418;DHT22;49;48.530;9.200;2023-09-07T04:51:57;20.60;29.30
418;DHT22;49;48.530;9.200;2023-09-07T04:54:24;20.70;37.60
418;DHT22;49;48.530;9.200;2023-09-07T04:56:51;20.70;30.70
418;DHT22;49;48.530;9.200;2023-09-07T04:59:18;20.60;33.80
418;DHT22;49;48.530;9.200;2023-09-07T05:01:45;20.60;36.30
418;DHT22;49;48.530;9.200;2023-09-07T05:04:12;20.80;34.50
418;DHT22;49;48.530;9.200;2023-09-07T05:06:40;21.00;38.10
418;DHT22;49;48.530;9.200;2023-09-07T05:09:07;21.30;35.30
418;DHT22;49;48.530;9.200;2023-09-07T05:11:34;21.60;34.20
418;DHT22;49;48.530;9.200;2023-09-07T05:14:01;21.70;32.80
418;DHT22;49;48.530;9.200;2023-09-07T05:16:28;21.70;29.90
418;DHT22;49;48.530;9.200;2023-09-07T05:18:55;21.80;32.10
418;DHT22;49;48.530;9.200;2023-09-07T05:21:22;21.90;30.00
418;DHT22;49;48.530;9.200;2023-09-07T05:23:50;21.90;29.20
418;DHT22;49;48.530;9.200;2023-09-07T05:26:21;21.80;28.50
418;DHT22;49;48.530;9.200;2023-09-07T05:28:48;21.90;31.90
418;DHT22;49;48.530;9.200;2023-09-07T05:31:15;22.10;29.50
418;DHT22;49;48.530;9.200;2023-09-07T05:33:42;22.90;31.40
418;DHT22;49;48.530;9.200;2023-09-07T05:36:09;23.60;28.60
418;DHT22;49;48.530;9.200;2023-09-07T05:38:36;24.50;26.00
418;DHT22;49;48.530;9.200;2023-09-07T05:41:04;25.40;21.20
418;DHT22;49;48.530;9.200;2023-09-07T05:43:31;25.70;20.00
418;DHT22;49;48.530;9.200;2023-09-07T05:45:59;26.40;17.60
418;DHT22;49;48.530;9.200;2023-09-07T05:48:27;26.60;16.30
418;DHT22;49;48.530;9.200;2023-09-07T05:50:56;27.20;14.80
418;DHT22;49;48.530;9.200;2023-09-07T05:53:23;27.70;13.90
418;DHT22;49;48.530;9.200;2023-09-07T05:55:52;28.00;13.00
418;DHT22;49;48.530;9.200;2023-09-07T05:58:21;28.20;10.80
418;DHT22;49;48.530;9.200;2023-09-07T06:00:48;28.40;10.00
418;DHT22;49;48.530;9.200;2023-09-07T06:03:15;28.70;9.90
418;DHT22;49;48.530;9.200;2023-09-07T06:05:42;28.90;9.50
418;DHT22;49;48.530;9.200;2023-09-07T06:08:10;29.50;8.30
418;DHT22;49;48.530;9.200;2023-09-07T06:10:40;30.20;7.40
418;DHT22;49;48.530;9.200;2023-09-07T06:13:07;30.40;6.50
418;DHT22;49;48.530;9.200;2023-09-07T06:15:35;30.90;5.80
418;DHT22;49;48.530;9.200;2023-09-07T06:18:03;31.40;4.50
418;DHT22;49;48.530;9.200;2023-09-07T06:20:30;31.60;3.90
418;DHT22;49;48.530;9.200;2023-09-07T06:22:56;31.60;4.30
418;DHT22;49;48.530;9.200;2023-09-07T06:25:23;31.80;4.40
418;DHT22;49;48.530;9.200;2023-09-07T06:27:50;32.20;3.70
418;DHT22;49;48.530;9.200;2023-09-07T06:30:20;32.10;2.90
418;DHT22;49;48.530;9.200;2023-09-07T06:32:49;32.60;2.30
418;DHT22;49;48.530;9.200;2023-09-07T06:35:17;32.70;2.50
418;DHT22;49;48.530;9.200;2023-09-07T06:37:45;33.00;1.50
418;DHT22;49;48.530;9.200;2023-09-07T06:40:11;33.30;1.10
418;DHT22;49;48.530;9.200;2023-09-07T06:42:41;32.70;2.40
418;DHT22;49;48.530;9.200;2023-09-07T06:45:08;33.00;1.60
418;DHT22;49;48.530;9.200;2023-09-07T06:47:36;33.00;1.40
418;DHT22;49;48.530;9.200;2023-09-07T06:50:05;33.20;1.40
418;DHT22;49;48.530;9.200;2023-09-07T06:52:32;33.50;1.00
418;DHT22;49;48.530;9.200;2023-09-07T06:54:59;33.80;1.00
418;DHT22;49;48.530;9.200;2023-09-07T06:57:26;33.50;1.00
418;DHT22;49;48.530;9.200;2023-09-07T06:59:53;33.90;1.00
418;DHT22;49;48.530;9.200;2023-09-07T07:02:20;33.50;1.00
418;DHT22;49;48.530;9.200;2023-09-07T07:04:46;33.60;1.00
418;DHT22;49;48.530;9.200;2023-09-07T07:07:15;33.70;1.00
418;DHT22;49;48.530;9.200;2023-09-07T07:09:41;34.10;1.00
418;DHT22;49;48.530;9.200;2023-09-07T07:12:08;34.80;1.00
418;DHT22;49;48.530;9.200;2023-09-07T07:14:35;35.30;1.00
418;DHT22;49;48.530;9.200;2023-09-07T07:17:02;35.20;1.00
418;DHT22;49;48.530;9.200;2023-09-07T07:19:30;35.00;1.00
418;DHT22;49;48.530;9.200;2023-09-07T07:21:57;34.30;1.00
418;DHT22;49;48.530;9.200;2023-09-07T07:24:25;34.60;1.00
418;DHT22;49;48.530;9.200;2023-09-07T07:26:52;34.00;1.00
418;DHT22;49;48.530;9.200;2023-09-07T07:29:19;35.00;1.00
418;DHT22;49;48.530;9.200;2023-09-07T07:31:46;34.70;1.00
418;DHT22;49;48.530;9.200;2023-09-07T07:34:13;33.90;1.00
418;DHT22;49;48.530;9.200;2023-09-07T07:36:40;34.00;1.00
418;DHT22;49;48.530;9.200;2023-09-07T07:39:07;34.50;1.00
418;DHT22;49;48.530;9.200;2023-09-07T07:41:35;35.20;1.00
418;DHT22;49;48.530;9.200;2023-09-07T07:44:03;34.90;1.00
418;DHT22;49;48.530;9.200;2023-09-07T07:46:30;34.40;1.00
418;DHT22;49;48.530;9.200;2023-09-07T07:48:57;35.00;1.00
418;DHT22;49;48.530;9.200;2023-09-07T07:51:24;34.90;1.00
418;DHT22;49;48.530;9.200;2023-09-07T07:53:53;35.30;1.00
418;DHT22;49;48.530;9.200;2023-09-07T07:56:20;34.70;1.00
418;DHT22;49;48.530;9.200;2023-09-07T07:58:49;35.10;1.00
418;DHT22;49;48.530;9.200;2023-09-07T08:01:16;34.60;1.00
418;DHT22;49;48.530;9.200;2023-09-07T08:03:44;33.60;1.00
418;DHT22;49;48.530;9.200;2023-09-07T08:06:11;33.60;1.00
418;DHT22;49;48.530;9.200;2023-09-07T08:08:39;34.10;1.00
418;DHT22;49;48.530;9.200;2023-09-07T08:11:07;34.00;1.00
418;DHT22;49;48.530;9.200;2023-09-07T08:13:35;33.80;1.00
418;DHT22;49;48.530;9.200;2023-09-07T08:16:04;33.50;1.00
418;DHT22;49;48.530;9.200;2023-09-07T08:18:32;33.20;1.00
418;DHT22;49;48.530;9.200;2023-09-07T08:21:00;33.30;1.00
418;DHT22;49;48.530;9.200;2023-09-07T08:23:27;33.60;1.00
418;DHT22;49;48.530;9.200;2023-09-07T08:25:54;33.20;1.20
418;DHT22;49;48.530;9.200;2023-09-07T08:28:21;33.30;1.20
418;DHT22;49;48.530;9.200;2023-09-07T08:30:49;33.40;1.20
418;DHT22;49;48.530;9.200;2023-09-07T08:33:20;33.00;1.70
418;DHT22;49;48.530;9.200;2023-09-07T08:35:54;32.20;2.80
418;DHT22;49;48.530;9.200;2023-09-07T08:38:22;32.10;3.20
418;DHT22;49;48.530;9.200;2023-09-07T08:40:54;33.00;2.20
418;DHT22;49;48.530;9.200;2023-09-07T08:43:21;33.20;1.70
418;DHT22;49;48.530;9.200;2023-09-07T08:45:55;32.70;2.20
418;DHT22;49;48.530;9.200;2023-09-07T08:48:29;32.60;3.30
418;DHT22;49;48.530;9.200;2023-09-07T08:50:57;33.00;2.60
418;DHT22;49;48.530;9.200;2023-09-07T08:53:25;33.10;2.20
418;DHT22;49;48.530;9.200;2023-09-07T08:55:51;31.60;3.90
418;DHT22;49;48.530;9.200;2023-09-07T08:58:18;30.60;5.60
418;DHT22;49;48.530;9.200;2023-09-07T09:00:45;30.70;5.60
418;DHT22;49;48.530;9.200;2023-09-07T09:03:12;30.60;5.60
418;DHT22;49;48.530;9.200;2023-09-07T09:05:41;30.10;6.90
418;DHT22;49;48.530;9.200;2023-09-07T09:08:10;29.80;7.30
418;DHT22;49;48.530;9.200;2023-09-07T09:10:38;29.30;8.30
418;DHT22;49;48.530;9.200;2023-09-07T09:13:05;28.90;10.30
418;DHT22;49;48.530;9.200;2023-09-07T09:15:32;28.90;10.80
418;DHT22;49;48.530;9.200;2023-09-07T09:18:09;29.30;9.90
418;DHT22;49;48.530;9.200;2023-09-07T09:20:38;29.40;9.90
418;DHT22;49;48.530;9.200;2023-09-07T09:23:06;29.10;10.60
418;DHT22;49;48.530;9.200;2023-09-07T09:25:33;28.80;11.10
418;DHT22;49;48.530;9.200;2023-09-07T09:28:00;28.80;11.10
418;DHT22;49;48.530;9.200;2023-09-07T09:30:27;28.50;12.40
418;DHT22;49;48.530;9.200;2023-09-07T09:32:54;28.60;13.20
418;DHT22;49;48.530;9.200;2023-09-07T09:35:21;28.70;12.20
418;DHT22;49;48.530;9.200;2023-09-07T09:37:49;28.40;13.10
418;DHT22;49;48.530;9.200;2023-09-07T09:40:17;29.00;12.30
418;DHT22;49;48.530;9.200;2023-09-07T09:42:44;29.30;11.40
418;DHT22;49;48.530;9.200;2023-09-07T09:45:12;29.50;11.20
418;DHT22;49;48.530;9.200;2023-09-07T09:47:40;29.40;11.40
418;DHT22;49;48.530;9.200;2023-09-07T09:50:08;29.50;11.10
418;DHT22;49;48.530;9.200;2023-09-07T09:52:36;29.50;10.70
418;DHT22;49;48.530;9.200;2023-09-07T09:55:07;29.50;10.90
418;DHT22;49;48.530;9.200;2023-09-07T09:57:39;29.70;10.60
418;DHT22;49;48.530;9.200;2023-09-07T10:00:07;29.30;11.60
418;DHT22;49;48.530;9.200;2023-09-07T10:02:48;29.10;11.60
418;DHT22;49;48.530;9.200;2023-09-07T10:05:17;28.40;13.50
418;DHT22;49;48.530;9.200;2023-09-07T10:07:47;28.50;13.60
418;DHT22;49;48.530;9.200;2023-09-07T10:10:15;28.20;14.80
418;DHT22;49;48.530;9.200;2023-09-07T10:12:44;28.20;14.50
418;DHT22;49;48.530;9.200;2023-09-07T10:15:21;28.10;15.30
418;DHT22;49;48.530;9.200;2023-09-07T10:17:48;28.20;15.20
418;DHT22;49;48.530;9.200;2023-09-07T10:20:16;28.50;14.60
418;DHT22;49;48.530;9.200;2023-09-07T10:22:43;28.40;14.90
418;DHT22;49;48.530;9.200;2023-09-07T10:25:21;28.10;16.10
418;DHT22;49;48.530;9.200;2023-09-07T10:27:49;28.30;16.10
418;DHT22;49;48.530;9.200;2023-09-07T10:30:16;28.50;15.10
418;DHT22;49;48.530;9.200;2023-09-07T10:32:45;28.10;16.50
418;DHT22;49;48.530;9.200;2023-09-07T10:35:16;28.30;16.80
418;DHT22;49;48.530;9.200;2023-09-07T10:37:44;28.50;15.90
418;DHT22;49;48.530;9.200;2023-09-07T10:40:12;28.60;15.50
418;DHT22;49;48.530;9.200;2023-09-07T10:42:41;28.60;15.30
418;DHT22;49;48.530;9.200;2023-09-07T10:45:11;28.30;16.10
418;DHT22;49;48.530;9.200;2023-09-07T10:47:40;28.20;16.70
418;DHT22;49;48.530;9.200;2023-09-07T10:50:08;28.40;15.80
418;DHT22;49;48.530;9.200;2023-09-07T10:52:36;28.30;15.90
418;DHT22;49;48.530;9.200;2023-09-07T10:55:03;28.10;16.70
418;DHT22;49;48.530;9.200;2023-09-07T10:57:30;28.40;16.50
418;DHT22;49;48.530;9.200;2023-09-07T10:59:57;28.90;15.50
418;DHT22;49;48.530;9.200;2023-09-07T11:02:25;28.90;15.30
418;DHT22;49;48.530;9.200;2023-09-07T11:04:52;28.50;16.50
418;DHT22;49;48.530;9.200;2023-09-07T11:07:19;28.70;15.40
418;DHT22;49;48.530;9.200;2023-09-07T11:09:46;28.90;14.60
418;DHT22;49;48.530;9.200;2023-09-07T11:12:13;28.90;15.10
418;DHT22;49;48.530;9.200;2023-09-07T11:14:41;28.80;15.30
418;DHT22;49;48.530;9.200;2023-09-07T11:17:08;28.80;15.80
418;DHT22;49;48.530;9.200;2023-09-07T11:19:36;28.60;15.90
418;DHT22;49;48.530;9.200;2023-09-07T11:22:03;28.60;16.00
418;DHT22;49;48.530;9.200;2023-09-07T11:24:30;28.90;15.80
418;DHT22;49;48.530;9.200;2023-09-07T11:26:58;29.00;16.00
418;DHT22;49;48.530;9.200;2023-09-07T11:29:25;28.90;16.20
418;DHT22;49;48.530;9.200;2023-09-07T11:31:52;29.10;16.30
418;DHT22;49;48.530;9.200;2023-09-07T11:34:19;29.50;15.20
418;DHT22;49;48.530;9.200;2023-09-07T11:36:47;30.00;14.40
418;DHT22;49;48.530;9.200;2023-09-07T11:39:14;30.00;13.80
418;DHT22;49;48.530;9.200;2023-09-07T11:41:42;30.10;14.30
418;DHT22;49;48.530;9.200;2023-09-07T11:44:09;30.10;13.60
418;DHT22;49;48.530;9.200;2023-09-07T11:46:37;30.20;13.70
418;DHT22;49;48.530;9.200;2023-09-07T11:49:04;29.50;14.60
418;DHT22;49;48.530;9.200;2023-09-07T11:51:31;29.20;15.90
418;DHT22;49;48.530;9.200;2023-09-07T11:54:01;29.40;16.10
418;DHT22;49;48.530;9.200;2023-09-07T11:56:28;29.70;15.50
418;DHT22;49;48.530;9.200;2023-09-07T11:58:55;29.90;14.90
418;DHT22;49;48.530;9.200;2023-09-07T12:01:21;29.80;14.70
418;DHT22;49;48.530;9.200;2023-09-07T12:03:48;29.30;16.20
418;DHT22;49;48.530;9.200;2023-09-07T12:06:15;29.50;16.90
418;DHT22;49;48.530;9.200;2023-09-07T12:08:43;30.10;15.30
418;DHT22;49;48.530;9.200;2023-09-07T12:11:25;30.00;14.70
418;DHT22;49;48.530;9.200;2023-09-07T12:13:52;30.10;13.60
418;DHT22;49;48.530;9.200;2023-09-07T12:16:19;29.80;14.40
418;DHT22;49;48.530;9.200;2023-09-07T12:18:46;30.10;14.30
418;DHT22;49;48.530;9.200;2023-09-07T12:21:13;30.50;13.80
418;DHT22;49;48.530;9.200;2023-09-07T12:23:40;30.10;14.10
418;DHT22;49;48.530;9.200;2023-09-07T12:26:06;30.10;14.00
418;DHT22;49;48.530;9.200;2023-09-07T12:28:35;29.90;14.50
418;DHT22;49;48.530;9.200;2023-09-07T12:31:02;30.00;14.00
418;DHT22;49;48.530;9.200;2023-09-07T12:33:30;29.80;15.20
418;DHT22;49;48.530;9.200;2023-09-07T12:35:58;29.80;14.70
418;DHT22;49;48.530;9.200;2023-09-07T12:38:25;29.40;15.00
418;DHT22;49;48.530;9.200;2023-09-07T12:40:54;29.30;16.00
418;DHT22;49;48.530;9.200;2023-09-07T12:43:20;29.70;15.30
418;DHT22;49;48.530;9.200;2023-09-07T12:45:49;29.80;15.00
418;DHT22;49;48.530;9.200;2023-09-07T12:48:15;29.50;15.20
418;DHT22;49;48.530;9.200;2023-09-07T12:50:43;29.10;15.60
418;DHT22;49;48.530;9.200;2023-09-07T12:53:10;29.50;15.60
418;DHT22;49;48.530;9.200;2023-09-07T12:55:37;30.10;14.40
418;DHT22;49;48.530;9.200;2023-09-07T12:58:04;30.20;13.80
418;DHT22;49;48.530;9.200;2023-09-07T13:00:31;30.20;13.20
418;DHT22;49;48.530;9.200;2023-09-07T13:02:59;30.20;13.30
418;DHT22;49;48.530;9.200;2023-09-07T13:05:26;30.20;13.20
418;DHT22;49;48.530;9.200;2023-09-07T13:07:52;30.10;13.30
418;DHT22;49;48.530;9.200;2023-09-07T13:10:20;30.00;13.10
418;DHT22;49;48.530;9.200;2023-09-07T13:12:47;30.20;12.90
418;DHT22;49;48.530;9.200;2023-09-07T13:15:13;30.80;12.20
418;DHT22;49;48.530;9.200;2023-09-07T13:17:40;30.70;12.00
418;DHT22;49;48.530;9.200;2023-09-07T13:20:10;30.50;12.00
418;DHT22;49;48.530;9.200;2023-09-07T13:22:37;30.20;12.60
418;DHT22;49;48.530;9.200;2023-09-07T13:25:05;30.10;12.70
418;DHT22;49;48.530;9.200;2023-09-07T13:27:32;30.20;12.20
418;DHT22;49;48.530;9.200;2023-09-07T13:29:59;30.10;12.20
418;DHT22;49;48.530;9.200;2023-09-07T13:32:26;30.30;12.30
418;DHT22;49;48.530;9.200;2023-09-07T13:34:53;30.70;12.10
418;DHT22;49;48.530;9.200;2023-09-07T13:37:21;30.70;11.50
418;DHT22;49;48.530;9.200;2023-09-07T13:39:48;30.60;11.50
418;DHT22;49;48.530;9.200;2023-09-07T13:42:15;30.70;12.00
418;DHT22;49;48.530;9.200;2023-09-07T13:44:42;30.70;11.30
418;DHT22;49;48.530;9.200;2023-09-07T13:47:11;30.80;11.40
418;DHT22;49;48.530;9.200;2023-09-07T13:49:37;31.20;10.40
418;DHT22;49;48.530;9.200;2023-09-07T13:52:05;31.30;9.40
418;DHT22;49;48.530;9.200;2023-09-07T13:54:33;31.10;10.30
418;DHT22;49;48.530;9.200;2023-09-07T13:57:00;30.70;10.60
418;DHT22;49;48.530;9.200;2023-09-07T13:59:26;30.60;10.70
418;DHT22;49;48.530;9.200;2023-09-07T14:01:58;31.00;10.30
418;DHT22;49;48.530;9.200;2023-09-07T14:04:24;30.90;10.60
418;DHT22;49;48.530;9.200;2023-09-07T14:06:51;30.80;10.50
418;DHT22;49;48.530;9.200;2023-09-07T14:09:18;30.90;10.40
418;DHT22;49;48.530;9.200;2023-09-07T14:11:49;31.20;9.80
418;DHT22;49;48.530;9.200;2023-09-07T14:14:15;30.90;9.50
418;DHT22;49;48.530;9.200;2023-09-07T14:16:43;30.70;10.20
418;DHT22;49;48.530;9.200;2023-09-07T14:19:10;31.00;9.30
418;DHT22;49;48.530;9.200;2023-09-07T14:21:37;31.20;8.40
418;DHT22;49;48.530;9.200;2023-09-07T14:24:04;31.10;8.70
418;DHT22;49;48.530;9.200;2023-09-07T14:26:31;31.30;8.60
418;DHT22;49;48.530;9.200;2023-09-07T14:28:59;31.20;8.20
418;DHT22;49;48.530;9.200;2023-09-07T14:31:26;30.60;9.50
418;DHT22;49;48.530;9.200;2023-09-07T14:33:52;30.50;9.40
418;DHT22;49;48.530;9.200;2023-09-07T14:36:19;30.90;9.40
418;DHT22;49;48.530;9.200;2023-09-07T14:38:46;31.10;8.40
418;DHT22;49;48.530;9.200;2023-09-07T14:41:13;31.00;8.30
418;DHT22;49;48.530;9.200;2023-09-07T14:43:44;31.30;8.60
418;DHT22;49;48.530;9.200;2023-09-07T14:46:13;31.40;8.00
418;DHT22;49;48.530;9.200;2023-09-07T14:48:40;31.30;7.90
418;DHT22;49;48.530;9.200;2023-09-07T14:51:08;30.80;8.70
418;DHT22;49;48.530;9.200;2023-09-07T14:53:34;31.00;8.30
418;DHT22;49;48.530;9.200;2023-09-07T14:56:01;30.90;8.60
418;DHT22;49;48.530;9.200;2023-09-07T14:58:28;31.00;8.60
418;DHT22;49;48.530;9.200;2023-09-07T15:00:55;30.70;8.60
418;DHT22;49;48.530;9.200;2023-09-07T15:03:24;30.70;9.50
418;DHT22;49;48.530;9.200;2023-09-07T15:05:51;30.70;9.70
418;DHT22;49;48.530;9.200;2023-09-07T15:08:18;30.70;9.60
418;DHT22;49;48.530;9.200;2023-09-07T15:10:45;31.20;8.60
418;DHT22;49;48.530;9.200;2023-09-07T15:13:11;31.30;8.10
418;DHT22;49;48.530;9.200;2023-09-07T15:15:39;31.30;8.40
418;DHT22;49;48.530;9.200;2023-09-07T15:18:06;31.20;8.60
418;DHT22;49;48.530;9.200;2023-09-07T15:20:35;31.20;8.20
418;DHT22;49;48.530;9.200;2023-09-07T15:23:02;31.00;8.50
418;DHT22;49;48.530;9.200;2023-09-07T15:25:29;30.90;9.00
418;DHT22;49;48.530;9.200;2023-09-07T15:27:56;31.30;8.70
418;DHT22;49;48.530;9.200;2023-09-07T15:30:23;31.20;8.20
418;DHT22;49;48.530;9.200;2023-09-07T15:32:50;30.90;9.10
418;DHT22;49;48.530;9.200;2023-09-07T15:35:17;30.70;9.50
418;DHT22;49;48.530;9.200;2023-09-07T15:37:45;30.70;9.40
418;DHT22;49;48.530;9.200;2023-09-07T15:40:12;30.70;10.00
418;DHT22;49;48.530;9.200;2023-09-07T15:42:39;31.20;9.20
418;DHT22;49;48.530;9.200;2023-09-07T15:45:07;31.00;8.90
418;DHT22;49;48.530;9.200;2023-09-07T15:47:34;30.70;9.20
418;DHT22;49;48.530;9.200;2023-09-07T15:50:01;30.60;9.00
418;DHT22;49;48.530;9.200;2023-09-07T15:52:29;30.70;8.60
418;DHT22;49;48.530;9.200;2023-09-07T15:54:57;30.30;9.10
418;DHT22;49;48.530;9.200;2023-09-07T15:57:25;30.40;9.30
418;DHT22;49;48.530;9.200;2023-09-07T15:59:52;30.90;8.90
418;DHT22;49;48.530;9.200;2023-09-07T16:02:21;30.70;9.30
418;DHT22;49;48.530;9.200;2023-09-07T16:04:48;31.10;8.90
418;DHT22;49;48.530;9.200;2023-09-07T16:07:15;31.40;8.60
418;DHT22;49;48.530;9.200;2023-09-07T16:09:41;31.80;8.20
418;DHT22;49;48.530;9.200;2023-09-07T16:12:10;32.10;6.90
418;DHT22;49;48.530;9.200;2023-09-07T16:14:37;31.90;7.20
418;DHT22;49;48.530;9.200;2023-09-07T16:17:04;32.20;6.50
418;DHT22;49;48.530;9.200;2023-09-07T16:19:31;32.50;6.60
418;DHT22;49;48.530;9.200;2023-09-07T16:21:58;32.20;6.50
418;DHT22;49;48.530;9.200;2023-09-07T16:24:25;32.10;6.70
418;DHT22;49;48.530;9.200;2023-09-07T16:26:52;32.20;6.70
418;DHT22;49;48.530;9.200;2023-09-07T16:29:20;32.20;6.90
418;DHT22;49;48.530;9.200;2023-09-07T16:31:47;32.20;7.20
418;DHT22;49;48.530;9.200;2023-09-07T16:34:14;31.90;7.00
418;DHT22;49;48.530;9.200;2023-09-07T16:36:40;31.70;8.40
418;DHT22;49;48.530;9.200;2023-09-07T16:39:07;31.60;7.80
418;DHT22;49;48.530;9.200;2023-09-07T16:41:34;31.70;7.80
418;DHT22;49;48.530;9.200;2023-09-07T16:44:01;31.80;7.40
418;DHT22;49;48.530;9.200;2023-09-07T16:46:29;31.80;7.40
418;DHT22;49;48.530;9.200;2023-09-07T16:48:56;31.80;7.40
418;DHT22;49;48.530;9.200;2023-09-07T16:51:23;31.70;7.60
418;DHT22;49;48.530;9.200;2023-09-07T16:53:50;31.80;7.20
418;DHT22;49;48.530;9.200;2023-09-07T16:56:17;31.50;7.80
418;DHT22;49;48.530;9.200;2023-09-07T16:58:46;31.40;8.30
418;DHT22;49;48.530;9.200;2023-09-07T17:01:15;31.20;8.30